createdAt,value
2023-04-29T00:01:52.910Z,6.57
2023-04-29T00:04:20.175Z,6.90
2023-04-29T00:06:47.466Z,7.22
2023-04-29T00:09:14.561Z,7.15
2023-04-29T00:11:41.688Z,7.30
2023-04-29T00:14:08.810Z,7.15
2023-04-29T00:16:36.237Z,7.07
2023-04-29T00:19:03.404Z,7.20
2023-04-29T00:21:30.531Z,7.07
2023-04-29T00:23:58.071Z,6.95
2023-04-29T00:26:25.252Z,6.72
2023-04-29T00:28:52.389Z,6.57
2023-04-29T00:31:19.524Z,6.70
2023-04-29T00:33:46.976Z,6.43
2023-04-29T00:36:14.163Z,6.65
2023-04-29T00:38:41.286Z,6.13
2023-04-29T00:41:08.405Z,6.13
2023-04-29T00:43:35.594Z,5.93
2023-04-29T00:46:02.746Z,6.60
2023-04-29T00:48:29.888Z,6.00
2023-04-29T00:50:57.008Z,5.85
2023-04-29T00:53:24.140Z,6.03
2023-04-29T00:55:51.718Z,5.85
2023-04-29T00:58:20.047Z,5.07
2023-04-29T01:00:47.249Z,5.68
2023-04-29T01:03:14.693Z,5.53
2023-04-29T01:05:42.166Z,4.90
2023-04-29T01:08:17.161Z,5.18
2023-04-29T01:10:50.079Z,5.03
2023-04-29T01:13:52.854Z,5.40
2023-04-29T01:16:25.971Z,5.18
2023-04-29T01:18:58.564Z,4.80
2023-04-29T01:21:26.218Z,5.22
2023-04-29T01:23:56.166Z,5.07
2023-04-29T01:26:24.315Z,5.03
2023-04-29T01:28:54.595Z,4.90
2023-04-29T01:31:41.602Z,5.38
2023-04-29T01:34:11.877Z,5.68
2023-04-29T01:36:41.770Z,5.45
2023-04-29T01:39:31.206Z,5.93
2023-04-29T01:42:16.858Z,5.30
2023-04-29T01:44:44.588Z,5.05
2023-04-29T01:47:14.096Z,5.47
2023-04-29T01:49:41.334Z,5.18
2023-04-29T01:52:08.445Z,5.80
2023-04-29T01:54:38.505Z,5.90
2023-04-29T01:57:05.667Z,5.22
2023-04-29T01:59:32.782Z,5.88
2023-04-29T02:01:59.920Z,6.00
2023-04-29T02:04:28.628Z,6.68
2023-04-29T02:06:55.820Z,6.82
2023-04-29T02:09:23.019Z,6.47
2023-04-29T02:11:50.171Z,6.63
2023-04-29T02:14:17.365Z,7.10
2023-04-29T02:16:47.561Z,7.05
2023-04-29T02:19:15.265Z,7.82
2023-04-29T02:21:43.053Z,8.30
2023-04-29T02:24:10.451Z,8.35
2023-04-29T02:26:38.278Z,7.43
2023-04-29T02:29:05.378Z,8.13
2023-04-29T02:31:32.743Z,7.63
2023-04-29T02:34:00.507Z,8.52
2023-04-29T02:36:28.487Z,8.50
2023-04-29T02:38:56.471Z,7.75
2023-04-29T02:41:25.693Z,8.38
2023-04-29T02:43:52.977Z,8.02
2023-04-29T02:46:20.311Z,8.13
2023-04-29T02:48:47.486Z,9.90
2023-04-29T02:51:14.596Z,8.43
2023-04-29T02:53:41.721Z,8.63
2023-04-29T02:56:08.847Z,9.35
2023-04-29T02:58:35.996Z,8.88
2023-04-29T03:01:03.839Z,8.27
2023-04-29T03:03:31.328Z,8.50
2023-04-29T03:05:58.653Z,8.98
2023-04-29T03:08:25.854Z,9.00
2023-04-29T03:10:53.030Z,9.52
2023-04-29T03:13:20.813Z,8.73
2023-04-29T03:15:47.931Z,8.23
2023-04-29T03:18:15.117Z,8.88
2023-04-29T03:20:42.192Z,9.75
2023-04-29T03:23:09.265Z,9.25
2023-04-29T03:25:37.020Z,9.05
2023-04-29T03:28:04.411Z,10.32
2023-04-29T03:30:31.520Z,10.50
2023-04-29T03:32:58.739Z,9.38
2023-04-29T03:35:25.966Z,10.68
2023-04-29T03:37:53.519Z,10.75
2023-04-29T03:40:20.650Z,11.50
2023-04-29T03:42:47.774Z,9.43
2023-04-29T03:45:14.915Z,9.52
2023-04-29T03:47:42.122Z,8.90
2023-04-29T03:50:09.395Z,8.60
2023-04-29T03:52:36.962Z,8.55
2023-04-29T03:55:04.336Z,9.55
2023-04-29T03:57:34.555Z,8.95
2023-04-29T04:00:01.639Z,9.32
2023-04-29T04:02:29.001Z,9.98
2023-04-29T04:04:56.423Z,10.15
2023-04-29T04:07:23.676Z,9.52
2023-04-29T04:09:51.160Z,9.95
2023-04-29T04:12:18.612Z,9.13
2023-04-29T04:14:45.698Z,9.63
2023-04-29T04:17:13.003Z,10.23
2023-04-29T04:19:40.090Z,10.50
2023-04-29T04:22:07.708Z,9.65
2023-04-29T04:24:35.153Z,10.30
2023-04-29T04:27:02.285Z,11.13
2023-04-29T04:29:29.434Z,9.73
2023-04-29T04:31:56.646Z,10.60
2023-04-29T04:34:23.886Z,11.02
2023-04-29T04:36:51.441Z,10.68
2023-04-29T04:39:18.891Z,11.45
2023-04-29T04:41:46.016Z,11.23
2023-04-29T04:44:14.186Z,11.57
2023-04-29T04:46:42.420Z,11.60
2023-04-29T04:49:09.593Z,11.90
2023-04-29T04:51:36.750Z,12.45
2023-04-29T04:54:03.892Z,11.98
2023-04-29T04:56:30.958Z,12.73
2023-04-29T04:58:58.023Z,14.38
2023-04-29T05:01:25.167Z,14.82
2023-04-29T05:03:52.547Z,15.98
2023-04-29T05:06:19.757Z,16.35
2023-04-29T05:08:47.004Z,17.05
2023-04-29T05:11:20.926Z,18.00
2023-04-29T05:13:48.292Z,17.58
2023-04-29T05:16:17.314Z,17.35
2023-04-29T05:18:45.766Z,17.23
2023-04-29T05:21:14.195Z,18.10
2023-04-29T05:23:43.374Z,17.63
2023-04-29T05:26:10.588Z,17.88
2023-04-29T05:28:37.827Z,17.75
2023-04-29T05:31:05.005Z,17.23
2023-04-29T05:33:32.260Z,16.25
2023-04-29T05:35:59.384Z,16.17
2023-04-29T05:38:29.157Z,16.73
2023-04-29T05:40:57.004Z,15.93
2023-04-29T05:43:24.348Z,14.50
2023-04-29T05:45:51.636Z,14.52
2023-04-29T05:48:18.811Z,15.18
2023-04-29T05:50:47.502Z,13.82
2023-04-29T05:53:14.703Z,13.07
2023-04-29T05:55:44.680Z,9.55
2023-04-29T05:58:12.351Z,8.90
2023-04-29T06:00:39.540Z,9.30
2023-04-29T06:03:06.862Z,8.95
2023-04-29T06:05:34.744Z,9.30
2023-04-29T06:08:02.987Z,9.32
2023-04-29T06:10:30.108Z,10.15
2023-04-29T06:12:57.272Z,10.23
2023-04-29T06:15:24.379Z,10.80
2023-04-29T06:17:52.269Z,10.20
2023-04-29T06:20:19.744Z,10.90
2023-04-29T06:22:47.570Z,10.65
2023-04-29T06:25:14.692Z,10.57
2023-04-29T06:27:41.806Z,11.18
2023-04-29T06:30:09.264Z,10.75
2023-04-29T06:32:36.406Z,11.70
2023-04-29T06:35:04.058Z,10.77
2023-04-29T06:37:31.165Z,10.68
2023-04-29T06:39:58.256Z,11.10
2023-04-29T06:42:25.768Z,11.18
2023-04-29T06:44:52.903Z,10.23
2023-04-29T06:47:20.213Z,10.20
2023-04-29T06:49:47.315Z,9.68
2023-04-29T06:52:14.879Z,8.70
2023-04-29T06:54:42.002Z,8.98
2023-04-29T06:57:09.114Z,9.57
2023-04-29T06:59:36.413Z,9.55
2023-04-29T07:02:03.564Z,9.68
2023-04-29T07:04:30.761Z,9.50
2023-04-29T07:06:59.495Z,9.60
2023-04-29T07:09:27.603Z,9.65
2023-04-29T07:11:55.331Z,9.80
2023-04-29T07:14:23.076Z,9.63
2023-04-29T07:16:56.282Z,9.50
2023-04-29T07:19:23.480Z,9.38
2023-04-29T07:21:50.603Z,8.80
2023-04-29T07:24:17.797Z,9.20
2023-04-29T07:26:45.499Z,7.90
2023-04-29T07:29:12.673Z,7.80
2023-04-29T07:31:39.780Z,8.27
2023-04-29T07:34:06.940Z,7.65
2023-04-29T07:36:34.499Z,6.88
2023-04-29T07:39:01.637Z,6.80
2023-04-29T07:41:28.732Z,6.82
2023-04-29T07:43:55.792Z,6.90
2023-04-29T07:46:23.479Z,8.00
2023-04-29T07:48:50.673Z,6.53
2023-04-29T07:51:17.873Z,6.70
2023-04-29T07:53:44.985Z,6.28
2023-04-29T07:56:12.151Z,6.38
2023-04-29T07:58:39.239Z,6.07
2023-04-29T08:01:07.163Z,6.45
2023-04-29T08:03:34.390Z,6.10
2023-04-29T08:06:02.497Z,5.93
2023-04-29T08:08:30.325Z,6.15
2023-04-29T08:10:57.498Z,6.05
2023-04-29T08:13:24.772Z,6.30
2023-04-29T08:15:52.734Z,6.47
2023-04-29T08:18:21.258Z,5.68
2023-04-29T08:20:49.540Z,6.50
2023-04-29T08:23:16.773Z,5.30
2023-04-29T08:25:44.278Z,5.40
2023-04-29T08:28:11.754Z,5.45
2023-04-29T08:30:41.923Z,4.63
2023-04-29T08:33:09.517Z,4.05
2023-04-29T08:35:39.825Z,4.60
2023-04-29T08:38:07.308Z,4.38
2023-04-29T08:40:35.401Z,4.18
2023-04-29T08:43:03.989Z,4.75
2023-04-29T08:45:32.508Z,4.85
2023-04-29T08:47:59.929Z,4.50
2023-04-29T08:50:29.179Z,4.53
2023-04-29T08:52:56.734Z,3.92
2023-04-29T08:55:24.512Z,4.35
2023-04-29T08:57:53.648Z,4.70
2023-04-29T09:00:21.262Z,4.93
2023-04-29T09:02:50.348Z,4.88
2023-04-29T09:05:17.689Z,4.80
2023-04-29T09:07:45.043Z,4.93
2023-04-29T09:10:13.048Z,4.57
2023-04-29T09:12:40.290Z,4.57
2023-04-29T09:15:07.603Z,4.80
2023-04-29T09:17:48.157Z,4.40
2023-04-29T09:20:21.815Z,3.58
2023-04-29T09:22:49.587Z,4.00
2023-04-29T09:25:16.866Z,3.92
2023-04-29T09:27:44.090Z,3.92
2023-04-29T09:30:16.407Z,4.00
2023-04-29T09:32:47.775Z,3.83
2023-04-29T09:35:24.969Z,3.92
2023-04-29T09:37:55.405Z,3.88
2023-04-29T09:40:33.863Z,3.88
2023-04-29T09:43:13.364Z,3.70
2023-04-29T09:45:42.341Z,3.42
2023-04-29T09:48:10.527Z,3.33
2023-04-29T09:50:38.305Z,3.22
2023-04-29T09:53:07.628Z,3.53
2023-04-29T09:55:34.783Z,2.97
2023-04-29T09:58:02.003Z,3.35
2023-04-29T10:00:33.170Z,3.75
2023-04-29T10:03:01.622Z,3.40
2023-04-29T10:05:30.556Z,3.70
2023-04-29T10:07:59.860Z,2.90
2023-04-29T10:10:30.428Z,4.10
2023-04-29T10:13:00.582Z,3.63
2023-04-29T10:15:36.767Z,3.55
2023-04-29T10:18:10.865Z,4.10
2023-04-29T10:20:40.140Z,4.10
2023-04-29T10:23:07.345Z,4.00
2023-04-29T10:25:36.791Z,4.07
2023-04-29T10:28:04.563Z,4.30
2023-04-29T10:30:32.736Z,4.30
2023-04-29T10:33:01.787Z,4.43
2023-04-29T10:35:29.265Z,4.72
2023-04-29T10:37:56.887Z,4.15
2023-04-29T10:40:37.965Z,4.05
2023-04-29T10:43:05.248Z,4.10
2023-04-29T10:45:35.901Z,3.67
2023-04-29T10:48:03.121Z,3.75
2023-04-29T10:50:30.727Z,3.85
2023-04-29T10:52:58.824Z,3.70
2023-04-29T10:55:26.163Z,3.42
2023-04-29T10:57:57.210Z,3.55
2023-04-29T11:00:28.141Z,3.30
2023-04-29T11:02:55.875Z,3.35
2023-04-29T11:05:32.168Z,3.60
2023-04-29T11:08:12.751Z,3.60
2023-04-29T11:10:43.559Z,4.00
2023-04-29T11:13:26.935Z,3.80
2023-04-29T11:16:14.493Z,4.10
2023-04-29T11:19:00.846Z,4.35
2023-04-29T11:21:28.467Z,4.43
2023-04-29T11:23:57.579Z,4.18
2023-04-29T11:26:25.071Z,4.28
2023-04-29T11:28:52.402Z,4.47
2023-04-29T11:31:19.653Z,3.88
2023-04-29T11:33:47.554Z,3.70
2023-04-29T11:36:15.190Z,3.50
2023-04-29T11:38:42.258Z,3.35
2023-04-29T11:41:09.677Z,3.45
2023-04-29T11:43:39.624Z,4.45
2023-04-29T11:46:12.610Z,2.92
2023-04-29T11:48:47.505Z,3.03
2023-04-29T11:51:15.074Z,2.97
2023-04-29T11:53:42.209Z,3.10
2023-04-29T11:56:10.212Z,3.30
2023-04-29T11:58:37.449Z,2.72
2023-04-29T12:01:07.723Z,3.15
2023-04-29T12:03:36.289Z,3.22
2023-04-29T12:06:04.490Z,2.70
2023-04-29T12:08:34.027Z,2.92
2023-04-29T12:11:01.760Z,2.88
2023-04-29T12:13:30.067Z,2.90
2023-04-29T12:15:58.470Z,2.85
2023-04-29T12:18:27.589Z,3.15
2023-04-29T12:20:55.969Z,2.85
2023-04-29T12:23:24.856Z,3.13
2023-04-29T12:25:53.176Z,3.55
2023-04-29T12:28:21.148Z,2.78
2023-04-29T12:30:48.957Z,2.70
2023-04-29T12:33:27.145Z,2.80
2023-04-29T12:35:56.665Z,2.42
2023-04-29T12:38:27.631Z,2.70
2023-04-29T12:40:55.935Z,2.60
2023-04-29T12:43:36.391Z,2.83
2023-04-29T12:46:04.516Z,3.00
2023-04-29T12:48:33.438Z,2.40
2023-04-29T12:51:01.378Z,3.22
2023-04-29T12:53:30.274Z,3.60
2023-04-29T12:55:57.649Z,3.92
2023-04-29T12:58:25.085Z,3.25
2023-04-29T13:00:52.201Z,3.50
2023-04-29T13:03:22.005Z,3.55
2023-04-29T13:05:53.645Z,3.65
2023-04-29T13:08:21.168Z,3.17
2023-04-29T13:10:48.405Z,3.15
2023-04-29T13:13:16.230Z,3.63
2023-04-29T13:15:43.311Z,3.88
2023-04-29T13:18:10.392Z,3.55
2023-04-29T13:20:41.377Z,4.18
2023-04-29T13:23:09.510Z,3.53
2023-04-29T13:25:36.665Z,4.43
2023-04-29T13:28:05.522Z,4.53
2023-04-29T13:30:33.224Z,4.95
2023-04-29T13:33:08.458Z,5.60
2023-04-29T13:35:40.260Z,5.43
2023-04-29T13:38:07.994Z,5.13
2023-04-29T13:40:39.515Z,4.18
2023-04-29T13:43:09.924Z,4.43
2023-04-29T13:45:41.255Z,4.25
2023-04-29T13:48:30.172Z,4.18
2023-04-29T13:51:34.515Z,4.85
2023-04-29T13:54:37.464Z,6.05
2023-04-29T14:04:01.980Z,6.55
2023-04-29T14:06:30.501Z,5.57
2023-04-29T14:08:57.636Z,5.88
2023-04-29T14:11:24.914Z,6.55
2023-04-29T14:13:52.135Z,6.18
2023-04-29T14:16:19.280Z,5.50
2023-04-29T14:18:46.479Z,5.43
2023-04-29T14:21:13.783Z,5.25
2023-04-29T14:23:41.467Z,5.40
2023-04-29T14:26:22.992Z,5.75
2023-04-29T14:28:57.776Z,5.90
2023-04-29T14:31:25.670Z,6.03
2023-04-29T14:33:52.870Z,6.20
2023-04-29T14:36:19.979Z,5.63
2023-04-29T14:38:47.104Z,5.95
2023-04-29T14:41:14.239Z,6.00
2023-04-29T14:43:42.272Z,5.50
2023-04-29T14:46:09.700Z,5.80
2023-04-29T14:48:36.949Z,6.57
2023-04-29T14:51:04.174Z,6.05
2023-04-29T14:53:31.277Z,6.50
2023-04-29T14:55:58.429Z,6.50
2023-04-29T14:58:25.767Z,6.18
2023-04-29T15:00:52.987Z,5.97
2023-04-29T15:03:22.802Z,5.47
2023-04-29T15:05:51.168Z,5.50
2023-04-29T15:08:18.769Z,5.45
2023-04-29T15:10:47.421Z,5.75
2023-04-29T15:13:14.730Z,6.25
2023-04-29T15:15:42.159Z,7.18
2023-04-29T15:18:09.514Z,6.32
2023-04-29T15:20:37.385Z,6.43
2023-04-29T15:23:05.323Z,6.20
2023-04-29T15:25:36.294Z,5.90
2023-04-29T15:28:04.600Z,5.72
2023-04-29T15:30:31.878Z,5.78
2023-04-29T15:32:59.116Z,5.22
2023-04-29T15:35:26.635Z,5.80
2023-04-29T15:37:53.834Z,5.95
2023-04-29T15:40:20.948Z,7.00
2023-04-29T15:42:48.015Z,7.15
2023-04-29T15:45:15.197Z,7.20
2023-04-29T15:47:42.465Z,7.20
2023-04-29T15:50:10.583Z,7.43
2023-04-29T15:52:37.748Z,6.22
2023-04-29T15:55:05.804Z,7.32
2023-04-29T15:57:34.485Z,6.70
2023-04-29T16:00:01.649Z,6.00
2023-04-29T16:02:29.038Z,6.55
2023-04-29T16:04:56.189Z,6.47
2023-04-29T16:07:23.362Z,6.70
2023-04-29T16:09:50.480Z,5.53
2023-04-29T16:12:17.604Z,5.75
2023-04-29T16:14:44.760Z,5.85
2023-04-29T16:17:12.691Z,6.22
2023-04-29T16:19:40.332Z,6.03
2023-04-29T16:22:07.544Z,5.78
2023-04-29T16:24:34.695Z,6.03
2023-04-29T16:27:02.673Z,5.32
2023-04-29T16:29:29.793Z,5.20
2023-04-29T16:31:57.473Z,5.05
2023-04-29T16:34:24.695Z,5.60
2023-04-29T16:36:52.623Z,5.18
2023-04-29T16:39:19.744Z,5.57
2023-04-29T16:41:46.810Z,6.05
2023-04-29T16:44:14.452Z,5.85
2023-04-29T16:46:41.777Z,5.97
2023-04-29T16:49:09.118Z,5.03
2023-04-29T16:51:36.288Z,5.68
2023-04-29T16:54:03.580Z,5.72
2023-04-29T16:56:30.785Z,5.10
2023-04-29T16:58:57.932Z,6.35
2023-04-29T17:01:25.115Z,6.03
2023-04-29T17:03:52.384Z,5.88
2023-04-29T17:06:19.593Z,6.70
2023-04-29T17:08:48.656Z,5.47
2023-04-29T17:11:18.279Z,5.20
2023-04-29T17:13:46.291Z,5.72
2023-04-29T17:16:16.353Z,5.13
2023-04-29T17:18:43.457Z,4.72
2023-04-29T17:21:10.692Z,4.70
2023-04-29T17:23:37.864Z,4.78
2023-04-29T17:26:05.888Z,4.68
2023-04-29T17:28:33.139Z,4.68
2023-04-29T17:31:01.312Z,4.60
2023-04-29T17:33:35.343Z,4.80
2023-04-29T17:36:03.575Z,5.10
2023-04-29T17:38:33.014Z,4.47
2023-04-29T17:41:00.427Z,4.55
2023-04-29T17:43:27.573Z,4.80
2023-04-29T17:45:54.721Z,5.03
2023-04-29T17:48:22.568Z,4.90
2023-04-29T17:50:49.773Z,4.93
2023-04-29T17:53:16.905Z,5.18
2023-04-29T17:55:44.880Z,5.53
2023-04-29T17:58:12.041Z,6.10
2023-04-29T18:00:41.672Z,6.40
2023-04-29T18:03:08.983Z,6.22
2023-04-29T18:05:36.167Z,6.63
2023-04-29T18:08:03.344Z,6.03
2023-04-29T18:10:30.477Z,6.60
2023-04-29T18:12:57.601Z,5.90
2023-04-29T18:15:24.731Z,6.50
2023-04-29T18:17:51.934Z,5.95
2023-04-29T18:20:19.295Z,6.47
2023-04-29T18:22:46.525Z,5.55
2023-04-29T18:25:13.660Z,6.22
2023-04-29T18:27:40.960Z,5.68
2023-04-29T18:30:08.555Z,4.82
2023-04-29T18:32:35.844Z,5.22
2023-04-29T18:35:03.919Z,4.90
2023-04-29T18:37:31.083Z,5.50
2023-04-29T18:39:58.302Z,5.03
2023-04-29T18:42:25.962Z,5.50
2023-04-29T18:44:53.222Z,5.57
2023-04-29T18:47:20.414Z,6.22
2023-04-29T18:49:48.156Z,5.85
2023-04-29T18:52:15.260Z,5.50
2023-04-29T18:54:42.371Z,5.88
2023-04-29T18:57:09.827Z,5.80
2023-04-29T18:59:38.010Z,5.78
2023-04-29T19:02:06.172Z,5.40
2023-04-29T19:04:34.193Z,5.43
2023-04-29T19:07:01.874Z,6.20
2023-04-29T19:09:32.101Z,5.55
2023-04-29T19:12:05.718Z,6.05
2023-04-29T19:14:33.893Z,6.00
2023-04-29T19:17:01.068Z,7.45
2023-04-29T19:19:28.282Z,6.50
2023-04-29T19:21:56.385Z,6.45
2023-04-29T19:24:23.582Z,6.20
2023-04-29T19:26:50.878Z,6.38
2023-04-29T19:29:17.954Z,5.88
2023-04-29T19:31:45.130Z,6.30
2023-04-29T19:34:12.286Z,6.28
2023-04-29T19:36:39.448Z,6.30
2023-04-29T19:39:06.665Z,6.30
2023-04-29T19:41:35.113Z,6.93
2023-04-29T19:44:02.530Z,6.10
2023-04-29T19:46:29.718Z,6.57
2023-04-29T19:48:56.979Z,6.18
2023-04-29T19:51:24.149Z,6.28
2023-04-29T19:53:51.831Z,6.03
2023-04-29T19:56:19.988Z,5.95
2023-04-29T19:58:47.351Z,6.47
2023-04-29T20:01:14.519Z,6.90
2023-04-29T20:03:41.733Z,6.97
2023-04-29T20:06:10.351Z,6.88
2023-04-29T20:08:37.665Z,6.60
2023-04-29T20:11:04.945Z,7.00
2023-04-29T20:13:32.264Z,7.05
2023-04-29T20:15:59.411Z,7.30
2023-04-29T20:18:26.999Z,6.43
2023-04-29T20:20:54.131Z,6.88
2023-04-29T20:23:21.318Z,4.82
2023-04-29T20:25:48.456Z,5.22
2023-04-29T20:28:15.647Z,5.50
2023-04-29T20:30:42.813Z,4.63
2023-04-29T20:33:10.029Z,4.88
2023-04-29T20:35:37.115Z,4.85
2023-04-29T20:38:04.235Z,4.70
2023-04-29T20:40:31.575Z,4.47
2023-04-29T20:42:59.225Z,3.90
2023-04-29T20:45:26.332Z,4.63
2023-04-29T20:47:54.455Z,5.30
2023-04-29T20:50:21.950Z,5.40
2023-04-29T20:52:49.595Z,5.40
2023-04-29T20:55:16.811Z,4.35
2023-04-29T20:57:43.977Z,4.90
2023-04-29T21:00:11.518Z,5.15
2023-04-29T21:02:38.678Z,4.07
2023-04-29T21:05:06.080Z,5.10
2023-04-29T21:07:33.326Z,4.80
2023-04-29T21:10:00.464Z,4.60
2023-04-29T21:12:27.620Z,5.03
2023-04-29T21:14:54.777Z,4.43
2023-04-29T21:17:21.980Z,4.80
2023-04-29T21:19:49.054Z,4.97
2023-04-29T21:22:16.224Z,5.03
2023-04-29T21:24:43.318Z,5.03
2023-04-29T21:27:10.446Z,4.72
2023-04-29T21:29:40.778Z,4.97
2023-04-29T21:32:08.711Z,5.00
2023-04-29T21:34:36.213Z,4.80
2023-04-29T21:37:03.358Z,4.25
2023-04-29T21:39:31.784Z,4.78
2023-04-29T21:42:03.188Z,4.60
2023-04-29T21:44:30.703Z,5.00
2023-04-29T21:46:59.815Z,5.28
2023-04-29T21:49:28.247Z,5.10
2023-04-29T21:51:55.833Z,5.28
2023-04-29T21:54:23.017Z,5.22
2023-04-29T21:56:50.137Z,5.00
2023-04-29T21:59:17.423Z,5.05
2023-04-29T22:01:47.353Z,5.47
2023-04-29T22:04:15.539Z,5.82
2023-04-29T22:06:42.922Z,4.88
2023-04-29T22:09:10.327Z,5.45
2023-04-29T22:11:37.620Z,5.78
2023-04-29T22:14:05.393Z,5.00
2023-04-29T22:16:32.652Z,5.85
2023-04-29T22:18:59.753Z,5.72
2023-04-29T22:21:27.915Z,5.35
2023-04-29T22:23:55.701Z,5.43
2023-04-29T22:26:25.350Z,6.05
2023-04-29T22:28:52.821Z,5.93
2023-04-29T22:31:20.030Z,5.65
2023-04-29T22:33:47.180Z,5.75
2023-04-29T22:36:14.369Z,7.22
2023-04-29T22:38:41.581Z,8.25
2023-04-29T22:41:09.964Z,6.90
2023-04-29T22:43:37.034Z,6.90
2023-04-29T22:46:04.322Z,7.70
2023-04-29T22:48:31.523Z,6.75
2023-04-29T22:50:59.449Z,7.30
2023-04-29T22:53:26.951Z,6.68
2023-04-29T22:55:55.026Z,6.60
2023-04-29T22:58:22.471Z,6.00
2023-04-29T23:00:53.866Z,7.15
2023-04-29T23:03:21.046Z,6.53
2023-04-29T23:05:48.250Z,5.90
2023-04-29T23:08:15.425Z,6.75
2023-04-29T23:10:42.680Z,6.40
2023-04-29T23:13:09.729Z,6.80
2023-04-29T23:15:36.978Z,6.25
2023-04-29T23:18:04.204Z,6.40
2023-04-29T23:20:32.499Z,6.93
2023-04-29T23:22:59.617Z,7.15
2023-04-29T23:25:26.712Z,6.93
2023-04-29T23:27:55.659Z,6.88
2023-04-29T23:30:22.864Z,7.93
2023-04-29T23:32:50.063Z,7.18
2023-04-29T23:35:17.215Z,8.32
2023-04-29T23:37:44.332Z,8.10
2023-04-29T23:40:11.785Z,7.95
2023-04-29T23:42:38.888Z,8.73
2023-04-29T23:45:06.381Z,8.60
2023-04-29T23:47:33.549Z,8.93
2023-04-29T23:50:00.736Z,8.48
2023-04-29T23:52:27.892Z,8.98
2023-04-29T23:54:55.011Z,8.93
2023-04-29T23:57:22.151Z,9.38
2023-04-29T23:59:49.227Z,9.30
